Time;durP1;ratioP1;P1;durP2;ratioP2;P2;SDS_P1;SDS_P2;PMS_P1;PMS_P2;Temp;Humidity;BMP_temperature;BMP_pressure;BME280_temperature;BME280_humidity;BME280_pressure;Samples;Min_cycle;Max_cycle;Signal;HPM_P1;HPM_P2
2021/07/07 00:00:23;;;;;;;1.92;1.48;;;15.00;99.90;;;;;;5083298;28;20017;-67
2021/07/07 00:02:49;;;;;;;5.13;1.90;;;15.00;99.90;;;;;;5085892;28;20103;-68
2021/07/07 00:05:17;;;;;;;1.92;1.20;;;14.90;99.90;;;;;;5082085;28;20032;-67
2021/07/07 00:07:43;;;;;;;3.70;2.08;;;14.90;99.90;;;;;;5084147;28;20050;-67
2021/07/07 00:10:13;;;;;;;8.70;1.60;;;14.90;99.90;;;;;;5082779;28;20521;-67
2021/07/07 00:12:38;;;;;;;4.90;1.92;;;14.80;99.90;;;;;;5072963;28;20021;-67
2021/07/07 00:15:07;;;;;;;2.75;2.10;;;14.80;99.90;;;;;;5081182;28;20032;-67
2021/07/07 00:17:33;;;;;;;4.45;2.00;;;14.80;99.90;;;;;;5084653;28;20028;-67
2021/07/07 00:19:58;;;;;;;2.65;1.73;;;14.80;99.90;;;;;;5085874;28;20023;-67
2021/07/07 00:22:24;;;;;;;4.57;2.10;;;14.70;99.90;;;;;;5085487;28;20020;-67
2021/07/07 00:24:49;;;;;;;4.45;2.30;;;14.70;99.90;;;;;;5086609;28;20073;-67
2021/07/07 00:27:15;;;;;;;8.25;1.83;;;14.80;99.90;;;;;;5086025;28;20042;-67
2021/07/07 00:29:42;;;;;;;3.47;1.80;;;14.70;99.90;;;;;;5079499;28;20027;-67
2021/07/07 00:32:08;;;;;;;7.18;2.22;;;14.60;99.90;;;;;;5076279;28;20358;-67
2021/07/07 00:34:33;;;;;;;3.75;2.30;;;14.60;99.90;;;;;;5080149;28;20492;-67
2021/07/07 00:36:59;;;;;;;3.92;1.80;;;14.60;99.90;;;;;;5086769;28;20086;-67
2021/07/07 00:39:24;;;;;;;4.45;2.20;;;14.60;99.90;;;;;;5081491;28;20457;-67
2021/07/07 00:41:50;;;;;;;5.47;2.15;;;14.60;99.90;;;;;;5083183;28;20052;-67
2021/07/07 00:44:15;;;;;;;3.72;1.67;;;14.50;99.90;;;;;;5079210;28;20095;-67
2021/07/07 00:46:45;;;;;;;2.85;1.77;;;14.50;99.90;;;;;;5084386;28;20052;-67
2021/07/07 00:49:13;;;;;;;2.50;1.73;;;14.50;99.90;;;;;;5085920;28;20020;-67
2021/07/07 00:51:38;;;;;;;4.78;2.50;;;14.50;99.90;;;;;;5083332;28;20017;-67
2021/07/07 00:54:05;;;;;;;4.88;2.30;;;14.50;99.90;;;;;;5086463;28;20399;-67
2021/07/07 00:56:33;;;;;;;4.53;1.98;;;14.50;99.90;;;;;;5084656;28;20040;-67
2021/07/07 00:59:01;;;;;;;5.50;1.88;;;14.50;99.90;;;;;;5085245;28;20055;-68
2021/07/07 01:01:27;;;;;;;2.92;1.70;;;14.40;99.90;;;;;;5080767;28;20488;-67
2021/07/07 01:03:52;;;;;;;4.90;2.45;;;14.40;99.90;;;;;;5083315;28;20102;-68
2021/07/07 01:06:18;;;;;;;3.97;2.50;;;14.40;99.90;;;;;;5082046;28;20052;-67
2021/07/07 01:08:43;;;;;;;5.00;2.33;;;14.40;99.90;;;;;;5081588;28;20445;-67
2021/07/07 01:11:09;;;;;;;4.47;1.85;;;14.40;99.90;;;;;;5084316;28;20025;-68
2021/07/07 01:13:34;;;;;;;3.38;1.85;;;14.30;99.90;;;;;;5083847;28;20012;-67
2021/07/07 01:16:03;;;;;;;4.25;2.10;;;14.40;99.90;;;;;;5079905;28;20560;-67
2021/07/07 01:18:29;;;;;;;5.63;2.47;;;14.40;99.90;;;;;;5085530;28;20035;-67
2021/07/07 01:20:54;;;;;;;5.00;2.38;;;14.30;99.90;;;;;;5080079;28;20111;-67
2021/07/07 01:23:20;;;;;;;4.95;2.13;;;14.30;99.90;;;;;;5085068;28;20032;-67
2021/07/07 01:25:46;;;;;;;3.55;2.10;;;14.30;99.90;;;;;;5084130;28;20100;-67
2021/07/07 01:28:12;;;;;;;5.03;2.22;;;14.30;99.90;;;;;;5079996;28;20020;-67
2021/07/07 01:30:37;;;;;;;3.00;2.10;;;14.30;99.90;;;;;;5079282;28;20020;-67
2021/07/07 01:33:03;;;;;;;4.22;2.28;;;14.30;99.90;;;;;;5080792;28;20025;-67
2021/07/07 01:35:28;;;;;;;3.50;2.67;;;14.30;99.90;;;;;;5081613;28;20047;-67
2021/07/07 01:37:54;;;;;;;4.05;2.33;;;14.30;99.90;;;;;;5074691;28;20369;-67
2021/07/07 01:40:23;;;;;;;2.97;2.10;;;14.20;99.90;;;;;;5082168;28;20043;-67
2021/07/07 01:42:49;;;;;;;3.95;2.40;;;14.20;99.90;;;;;;5084901;28;20365;-67
2021/07/07 01:45:15;;;;;;;4.43;2.00;;;14.20;99.90;;;;;;5082583;28;20021;-67
2021/07/07 01:47:41;;;;;;;4.28;1.80;;;14.20;99.90;;;;;;5085614;28;20027;-67
2021/07/07 01:50:10;;;;;;;5.18;2.20;;;14.20;99.90;;;;;;5083792;28;20020;-68
2021/07/07 01:52:36;;;;;;;1.83;1.43;;;14.20;99.90;;;;;;5082947;28;20361;-67
2021/07/07 01:55:08;;;;;;;2.45;1.50;;;14.20;99.90;;;;;;5082673;28;20028;-67
2021/07/07 01:57:43;;;;;;;3.47;1.80;;;14.20;99.90;;;;;;5084044;28;20069;-67
2021/07/07 02:00:17;;;;;;;2.05;1.60;;;14.20;99.90;;;;;;5083083;28;20016;-67
2021/07/07 02:02:44;;;;;;;2.10;1.40;;;14.20;99.90;;;;;;5083814;28;20028;-67
2021/07/07 02:05:10;;;;;;;3.47;1.98;;;14.20;99.90;;;;;;5079797;28;20137;-67
2021/07/07 02:07:36;;;;;;;3.60;1.45;;;14.20;99.90;;;;;;5082042;28;20481;-67
2021/07/07 02:10:05;;;;;;;2.85;1.70;;;14.20;99.90;;;;;;5083560;28;20116;-67
2021/07/07 02:12:30;;;;;;;3.78;1.80;;;14.20;99.90;;;;;;5067761;28;20468;-67
2021/07/07 02:14:56;;;;;;;3.92;2.08;;;14.20;99.90;;;;;;5087713;28;20052;-67
2021/07/07 02:17:21;;;;;;;3.97;1.40;;;14.20;99.90;;;;;;5082081;28;20026;-67
2021/07/07 02:19:47;;;;;;;3.55;1.50;;;14.10;99.90;;;;;;5074733;28;20115;-67
2021/07/07 02:22:12;;;;;;;2.30;1.55;;;14.10;99.90;;;;;;5082196;28;20443;-67
2021/07/07 02:24:38;;;;;;;3.47;2.30;;;14.10;99.90;;;;;;5085268;28;20055;-67
2021/07/07 02:27:03;;;;;;;2.67;1.55;;;14.10;99.90;;;;;;5080387;28;20384;-67
2021/07/07 02:29:29;;;;;;;3.47;2.10;;;14.00;99.90;;;;;;5085225;28;20020;-67
2021/07/07 02:31:55;;;;;;;4.97;2.30;;;14.00;99.90;;;;;;5078078;28;20445;-67
2021/07/07 02:34:20;;;;;;;3.25;2.33;;;14.00;99.90;;;;;;5082502;28;20539;-67
2021/07/07 02:36:46;;;;;;;2.97;2.20;;;14.00;99.90;;;;;;5081665;28;20408;-67
2021/07/07 02:39:11;;;;;;;3.20;2.35;;;13.90;99.90;;;;;;5083795;28;20503;-67
2021/07/07 02:41:37;;;;;;;2.53;2.03;;;13.90;99.90;;;;;;5084824;28;20459;-67
2021/07/07 02:44:02;;;;;;;5.18;2.30;;;13.90;99.90;;;;;;5083276;28;20468;-67
2021/07/07 02:46:28;;;;;;;5.82;2.70;;;13.80;99.90;;;;;;5082957;28;20492;-67
2021/07/07 02:48:53;;;;;;;3.38;2.53;;;13.80;99.90;;;;;;5082303;28;20024;-67
2021/07/07 02:51:19;;;;;;;4.93;2.78;;;13.80;99.90;;;;;;5080748;28;20020;-67
2021/07/07 02:53:44;;;;;;;4.20;2.97;;;13.70;99.90;;;;;;5082999;28;20016;-67
2021/07/07 02:56:10;;;;;;;6.82;3.85;;;13.70;99.90;;;;;;5080580;28;20028;-67
2021/07/07 02:58:35;;;;;;;4.88;2.97;;;13.70;99.90;;;;;;5083855;28;20062;-67
2021/07/07 03:01:02;;;;;;;6.38;3.88;;;13.70;99.90;;;;;;5077760;28;20031;-67
2021/07/07 03:03:28;;;;;;;6.13;3.55;;;13.70;99.90;;;;;;5082812;28;20051;-67
2021/07/07 03:05:59;;;;;;;4.97;4.22;;;13.60;99.90;;;;;;5081426;28;20021;-67
2021/07/07 03:08:32;;;;;;;5.45;4.32;;;13.70;99.90;;;;;;5084083;28;20046;-67
2021/07/07 03:10:59;;;;;;;6.57;4.50;;;13.70;99.90;;;;;;5078441;28;20043;-67
2021/07/07 03:13:26;;;;;;;5.05;4.22;;;13.70;99.90;;;;;;5079302;28;20017;-67
2021/07/07 03:15:52;;;;;;;5.80;4.32;;;13.70;99.90;;;;;;5082182;28;20513;-67
2021/07/07 03:18:18;;;;;;;5.82;4.20;;;13.70;99.90;;;;;;5082369;28;20032;-67
2021/07/07 03:20:46;;;;;;;6.05;4.65;;;13.70;99.90;;;;;;5080100;28;20492;-67
2021/07/07 03:23:13;;;;;;;7.60;4.38;;;13.70;99.90;;;;;;5080296;28;20020;-68
2021/07/07 03:25:39;;;;;;;8.07;4.88;;;13.70;99.90;;;;;;5079957;28;20013;-67
2021/07/07 03:28:06;;;;;;;6.07;4.90;;;13.80;99.90;;;;;;5081162;28;20087;-67
2021/07/07 03:30:32;;;;;;;7.55;5.65;;;13.80;99.90;;;;;;5082060;28;20020;-67
2021/07/07 03:32:59;;;;;;;8.65;5.57;;;13.80;99.90;;;;;;5081414;28;20103;-67
2021/07/07 03:35:25;;;;;;;8.80;5.70;;;13.90;99.90;;;;;;5083526;28;20102;-67
2021/07/07 03:37:51;;;;;;;11.23;6.07;;;13.90;99.90;;;;;;5084653;28;20013;-67
2021/07/07 03:40:18;;;;;;;7.03;5.47;;;13.90;99.90;;;;;;5086190;28;20019;-68
2021/07/07 03:42:44;;;;;;;6.93;5.57;;;13.90;99.90;;;;;;5081968;28;20031;-67
2021/07/07 03:45:12;;;;;;;9.43;5.53;;;13.90;99.90;;;;;;5088497;28;20060;-67
2021/07/07 03:47:38;;;;;;;9.38;5.47;;;13.90;99.90;;;;;;5089301;28;20021;-67
2021/07/07 03:50:06;;;;;;;8.52;5.45;;;13.90;99.90;;;;;;5082038;28;20073;-67
2021/07/07 03:52:32;;;;;;;7.35;5.70;;;13.90;99.90;;;;;;5086248;28;20602;-67
2021/07/07 03:54:58;;;;;;;8.95;5.13;;;13.90;99.90;;;;;;5082144;28;20477;-69
2021/07/07 03:57:24;;;;;;;8.13;5.50;;;13.90;99.90;;;;;;5083074;28;20031;-67
2021/07/07 03:59:49;;;;;;;7.00;5.70;;;13.90;99.90;;;;;;5087416;28;20099;-67
2021/07/07 04:02:15;;;;;;;7.55;6.15;;;14.00;99.90;;;;;;5083067;28;20182;-67
2021/07/07 04:04:43;;;;;;;9.50;6.25;;;13.90;99.90;;;;;;5087796;28;20128;-68
2021/07/07 04:07:08;;;;;;;6.80;5.20;;;13.90;99.90;;;;;;5086482;28;20012;-67
2021/07/07 04:09:34;;;;;;;6.03;4.88;;;13.90;99.90;;;;;;5085046;28;20460;-67
2021/07/07 04:12:01;;;;;;;7.20;5.70;;;13.90;99.90;;;;;;5084034;28;20473;-67
2021/07/07 04:14:28;;;;;;;7.88;5.65;;;13.90;99.90;;;;;;5084481;28;20366;-67
2021/07/07 04:16:56;;;;;;;6.95;5.07;;;13.90;99.90;;;;;;5085068;28;20329;-68
2021/07/07 04:19:23;;;;;;;5.38;4.60;;;14.00;99.90;;;;;;5088951;28;20062;-67
2021/07/07 04:21:49;;;;;;;7.78;4.63;;;14.00;99.90;;;;;;5092712;28;20028;-67
2021/07/07 04:24:15;;;;;;;10.68;4.72;;;14.00;99.90;;;;;;5094822;28;20026;-67
2021/07/07 04:26:41;;;;;;;8.10;5.15;;;14.00;99.90;;;;;;5094714;28;20055;-67
2021/07/07 04:29:06;;;;;;;6.20;4.43;;;14.00;99.90;;;;;;5094699;28;20362;-67
2021/07/07 04:31:36;;;;;;;9.10;4.93;;;14.10;99.90;;;;;;5094794;28;20191;-67
2021/07/07 04:34:03;;;;;;;5.90;4.75;;;14.10;99.90;;;;;;5093340;28;20016;-67
2021/07/07 04:36:29;;;;;;;8.07;5.00;;;14.10;99.90;;;;;;5094916;28;20480;-67
2021/07/07 04:38:55;;;;;;;7.38;5.60;;;14.20;99.90;;;;;;5094474;28;20036;-67
2021/07/07 04:41:21;;;;;;;7.30;5.70;;;14.30;99.90;;;;;;5093191;28;20377;-67
2021/07/07 04:43:46;;;;;;;7.28;6.32;;;14.30;99.90;;;;;;5094403;28;20039;-67
2021/07/07 04:46:12;;;;;;;9.05;5.35;;;14.40;99.90;;;;;;5093001;28;20059;-67
2021/07/07 04:48:38;;;;;;;9.75;5.43;;;14.40;99.90;;;;;;5093190;28;20051;-67
2021/07/07 04:51:04;;;;;;;8.52;5.80;;;14.40;99.90;;;;;;5090900;28;20028;-67
2021/07/07 04:53:30;;;;;;;7.72;5.25;;;14.50;99.90;;;;;;5094489;28;20055;-67
2021/07/07 04:55:56;;;;;;;8.18;6.10;;;14.50;99.90;;;;;;5094045;28;20077;-67
2021/07/07 04:58:24;;;;;;;10.43;5.70;;;14.50;99.90;;;;;;5092906;28;20522;-67
2021/07/07 05:00:50;;;;;;;9.63;5.60;;;14.50;99.90;;;;;;5094401;28;20020;-67
2021/07/07 05:03:15;;;;;;;7.45;5.43;;;14.50;99.90;;;;;;5094095;28;20035;-67
2021/07/07 05:05:41;;;;;;;7.70;5.53;;;14.50;99.90;;;;;;5094005;28;20028;-67
2021/07/07 05:08:06;;;;;;;9.80;5.68;;;14.60;99.90;;;;;;5093997;28;20059;-67
2021/07/07 05:10:32;;;;;;;8.63;5.80;;;14.60;99.90;;;;;;5093807;28;20024;-67
2021/07/07 05:12:58;;;;;;;10.02;6.00;;;14.60;99.90;;;;;;5093925;28;20020;-67
2021/07/07 05:15:24;;;;;;;7.22;5.65;;;14.70;99.90;;;;;;5091915;28;20024;-67
2021/07/07 05:17:50;;;;;;;8.35;5.70;;;14.60;99.90;;;;;;5093594;28;20097;-67
2021/07/07 05:20:17;;;;;;;6.72;4.75;;;14.70;99.90;;;;;;5093379;28;20031;-67
2021/07/07 05:22:44;;;;;;;9.80;5.93;;;14.80;99.90;;;;;;5093763;28;20020;-67
2021/07/07 05:25:13;;;;;;;8.95;5.35;;;14.80;99.90;;;;;;5093516;28;20074;-67
2021/07/07 05:27:39;;;;;;;;;;;14.80;99.90;;;;;;5094039;28;20021;-67
2021/07/07 05:30:06;;;;;;;6.97;4.97;;;14.80;99.90;;;;;;5093625;28;19910;-67
2021/07/07 05:32:32;;;;;;;9.00;5.28;;;14.90;99.90;;;;;;5093347;28;20473;-67
2021/07/07 05:34:58;;;;;;;12.27;5.68;;;14.90;99.90;;;;;;5092168;28;20024;-67
2021/07/07 05:37:24;;;;;;;7.70;5.38;;;15.00;99.90;;;;;;5093454;28;20106;-67
2021/07/07 05:39:51;;;;;;;7.07;5.43;;;15.00;99.90;;;;;;5093458;28;20021;-68
2021/07/07 05:42:19;;;;;;;12.35;5.43;;;15.10;99.90;;;;;;5093596;28;20028;-67
2021/07/07 05:44:46;;;;;;;7.88;5.07;;;15.10;99.90;;;;;;5093263;28;20016;-67
2021/07/07 05:47:12;;;;;;;10.05;5.35;;;15.20;99.90;;;;;;5093344;28;20054;-67
2021/07/07 05:49:38;;;;;;;8.40;5.10;;;15.30;99.90;;;;;;5093266;28;20052;-68
2021/07/07 05:52:04;;;;;;;9.23;5.88;;;15.30;99.90;;;;;;5093043;28;20503;-68
2021/07/07 05:54:31;;;;;;;7.68;5.40;;;15.30;99.90;;;;;;5093068;28;20059;-68
2021/07/07 05:56:57;;;;;;;11.43;5.45;;;15.40;99.90;;;;;;5092964;28;20038;-68
2021/07/07 05:59:22;;;;;;;10.13;5.93;;;15.40;99.90;;;;;;5093214;28;20024;-68
2021/07/07 06:01:48;;;;;;;7.75;4.88;;;15.50;99.90;;;;;;5093013;28;20358;-68
2021/07/07 06:04:13;;;;;;;9.68;5.38;;;15.50;99.90;;;;;;5093078;28;20028;-68
2021/07/07 06:06:39;;;;;;;11.55;5.72;;;15.60;99.90;;;;;;5092737;28;20028;-68
2021/07/07 06:09:04;;;;;;;7.57;4.97;;;15.70;99.90;;;;;;5092978;28;20027;-68
2021/07/07 06:11:30;;;;;;;7.65;5.20;;;15.70;99.90;;;;;;5093035;28;20022;-68
2021/07/07 06:13:55;;;;;;;7.57;5.18;;;15.80;99.90;;;;;;5092760;28;20090;-67
2021/07/07 06:16:21;;;;;;;9.27;5.03;;;15.80;99.90;;;;;;5091651;28;20388;-68
2021/07/07 06:18:46;;;;;;;7.90;5.00;;;15.80;99.90;;;;;;5089100;28;20507;-68
2021/07/07 06:21:12;;;;;;;6.93;4.72;;;15.90;99.90;;;;;;5072043;28;20082;-68
2021/07/07 06:23:37;;;;;;;11.30;6.00;;;15.90;99.90;;;;;;5072161;28;20027;-68
2021/07/07 06:26:03;;;;;;;8.27;5.07;;;16.00;99.90;;;;;;5078985;28;20077;-68
2021/07/07 06:28:29;;;;;;;8.10;4.60;;;16.10;99.90;;;;;;5091898;28;20024;-68
2021/07/07 06:30:54;;;;;;;6.93;5.53;;;16.10;99.90;;;;;;5077052;28;20574;-67
2021/07/07 06:33:20;;;;;;;9.77;5.60;;;16.20;99.90;;;;;;5092289;28;20473;-68
2021/07/07 06:35:45;;;;;;;8.38;4.97;;;16.20;99.90;;;;;;5092244;28;20048;-67
2021/07/07 06:38:11;;;;;;;14.77;4.97;;;16.20;99.90;;;;;;5092806;28;20124;-68
2021/07/07 06:40:37;;;;;;;7.80;4.70;;;16.20;99.90;;;;;;5092650;28;20540;-68
2021/07/07 06:43:03;;;;;;;8.65;4.30;;;16.30;99.90;;;;;;5092513;28;20024;-68
2021/07/07 06:45:33;;;;;;;9.27;5.85;;;16.40;99.90;;;;;;5092869;28;20047;-68
2021/07/07 06:47:58;;;;;;;10.82;5.65;;;16.50;99.90;;;;;;5091107;28;20012;-67
2021/07/07 06:50:24;;;;;;;7.45;4.68;;;16.70;99.90;;;;;;5092265;28;20169;-67
2021/07/07 06:52:50;;;;;;;6.40;4.20;;;16.80;99.90;;;;;;5090915;28;20044;-67
2021/07/07 06:55:16;;;;;;;7.80;4.13;;;16.90;99.90;;;;;;5089815;28;20413;-67
2021/07/07 06:57:42;;;;;;;10.15;4.78;;;17.00;99.90;;;;;;5091118;28;20117;-67
2021/07/07 07:00:12;;;;;;;9.18;4.57;;;17.20;99.90;;;;;;5090972;28;20028;-67
2021/07/07 07:02:39;;;;;;;6.20;4.00;;;17.30;99.90;;;;;;5092372;28;20028;-67
2021/07/07 07:05:07;;;;;;;5.63;3.33;;;17.50;99.90;;;;;;5092028;28;20016;-67
2021/07/07 07:07:33;;;;;;;7.47;3.40;;;17.50;99.30;;;;;;5093070;28;20054;-68
2021/07/07 07:10:01;;;;;;;10.18;3.95;;;17.50;98.80;;;;;;5096306;28;20024;-67
2021/07/07 07:12:27;;;;;;;8.95;4.40;;;17.60;98.70;;;;;;5096174;28;20113;-67
2021/07/07 07:14:54;;;;;;;8.95;3.65;;;17.60;98.60;;;;;;5096199;28;20024;-67
2021/07/07 07:17:24;;;;;;;6.88;2.95;;;17.70;98.40;;;;;;5094621;28;20418;-67
2021/07/07 07:19:50;;;;;;;9.00;2.40;;;17.70;98.20;;;;;;5095778;28;20032;-67
2021/07/07 07:22:16;;;;;;;6.10;2.70;;;17.80;98.00;;;;;;5094575;28;20118;-67
2021/07/07 07:24:43;;;;;;;6.18;2.88;;;17.90;98.00;;;;;;5095756;28;20024;-68
2021/07/07 07:27:09;;;;;;;4.90;2.67;;;18.00;98.00;;;;;;5095425;28;20024;-67
2021/07/07 07:29:40;;;;;;;5.38;2.33;;;18.10;97.70;;;;;;5095500;28;20476;-67
2021/07/07 07:32:06;;;;;;;4.38;2.42;;;18.20;97.10;;;;;;5089365;28;20437;-67
2021/07/07 07:34:32;;;;;;;4.85;2.53;;;18.30;96.60;;;;;;5086163;28;20013;-67
2021/07/07 07:37:02;;;;;;;4.90;1.65;;;18.40;96.50;;;;;;5075180;28;20063;-67
2021/07/07 07:39:30;;;;;;;4.30;2.17;;;18.50;96.30;;;;;;5094404;28;20020;-67
2021/07/07 07:42:02;;;;;;;5.40;2.15;;;18.60;95.60;;;;;;5095671;28;20484;-67
2021/07/07 07:44:27;;;;;;;5.30;1.65;;;18.60;95.80;;;;;;5095344;28;20578;-67
2021/07/07 07:46:56;;;;;;;4.53;1.88;;;18.70;96.00;;;;;;5094107;28;20111;-67
2021/07/07 07:49:22;;;;;;;5.22;1.60;;;18.70;95.70;;;;;;5095456;28;20388;-67
2021/07/07 07:51:47;;;;;;;4.15;1.75;;;18.80;95.30;;;;;;5095503;28;20109;-68
2021/07/07 07:54:13;;;;;;;5.45;1.75;;;18.80;94.90;;;;;;5095201;28;20028;-68
2021/07/07 07:56:38;;;;;;;5.65;2.08;;;18.90;94.70;;;;;;5095233;28;20028;-67
2021/07/07 07:59:04;;;;;;;4.88;1.92;;;18.90;94.60;;;;;;5095276;28;20020;-68
2021/07/07 08:01:30;;;;;;;3.65;1.40;;;19.00;94.60;;;;;;5093990;28;20169;-67
2021/07/07 08:03:55;;;;;;;3.78;1.50;;;19.10;94.20;;;;;;5095209;28;20106;-67
2021/07/07 08:06:21;;;;;;;4.75;1.27;;;19.10;93.80;;;;;;5094987;28;20032;-67
2021/07/07 08:08:46;;;;;;;4.25;2.17;;;19.10;93.70;;;;;;5095000;28;20026;-68
2021/07/07 08:11:12;;;;;;;4.40;1.70;;;19.20;93.10;;;;;;5093867;28;20020;-67
2021/07/07 08:13:38;;;;;;;7.25;2.00;;;19.30;93.20;;;;;;5093556;28;20028;-67
2021/07/07 08:16:04;;;;;;;4.82;1.63;;;19.30;93.10;;;;;;5095047;28;20017;-67
2021/07/07 08:18:30;;;;;;;4.07;1.38;;;19.30;93.30;;;;;;5094491;28;20078;-68
2021/07/07 08:20:55;;;;;;;4.70;1.60;;;19.40;93.30;;;;;;5094884;28;20020;-67
2021/07/07 08:23:22;;;;;;;4.95;1.75;;;19.50;93.30;;;;;;5094930;28;20027;-67
2021/07/07 08:25:47;;;;;;;4.30;1.50;;;19.50;93.40;;;;;;5093171;28;20048;-67
2021/07/07 08:28:14;;;;;;;4.13;1.08;;;19.60;93.10;;;;;;5094626;28;20063;-67
2021/07/07 08:30:39;;;;;;;5.82;1.98;;;19.70;92.70;;;;;;5094620;28;20020;-67
2021/07/07 08:33:05;;;;;;;7.38;1.75;;;19.80;93.10;;;;;;5094867;28;20061;-67
2021/07/07 08:35:30;;;;;;;3.70;1.27;;;19.80;92.30;;;;;;5094294;28;20409;-67
2021/07/07 08:37:56;;;;;;;6.32;1.23;;;19.80;92.10;;;;;;5088523;28;20033;-67
2021/07/07 08:40:24;;;;;;;4.80;1.60;;;19.90;92.10;;;;;;5082976;28;20035;-67
2021/07/07 08:42:49;;;;;;;4.47;1.48;;;19.90;91.90;;;;;;5094322;28;20017;-67
2021/07/07 08:45:17;;;;;;;7.13;1.83;;;20.00;91.40;;;;;;5094621;28;20085;-67
2021/07/07 08:47:45;;;;;;;3.95;1.13;;;20.10;91.10;;;;;;5093069;28;20028;-67
2021/07/07 08:50:26;;;;;;;6.82;1.50;;;20.10;91.40;;;;;;5094214;28;20012;-67
2021/07/07 08:52:53;;;;;;;5.35;2.03;;;20.20;91.30;;;;;;5094340;28;20039;-67
2021/07/07 08:55:20;;;;;;;6.88;1.85;;;20.30;91.30;;;;;;5094012;28;20485;-67
2021/07/07 08:57:46;;;;;;;5.07;1.80;;;20.40;90.80;;;;;;5082396;28;20033;-67
2021/07/07 09:00:14;;;;;;;2.58;1.00;;;20.40;90.60;;;;;;5091553;28;20032;-67
2021/07/07 09:02:52;;;;;;;6.60;1.95;;;20.50;90.40;;;;;;5094146;28;20024;-67
2021/07/07 09:05:18;;;;;;;6.65;1.85;;;20.60;89.60;;;;;;5093388;28;20016;-67
2021/07/07 09:07:44;;;;;;;5.43;1.15;;;20.70;90.10;;;;;;5093902;28;20524;-67
2021/07/07 09:10:14;;;;;;;5.53;1.25;;;20.70;88.90;;;;;;5093775;28;20028;-68
2021/07/07 09:12:39;;;;;;;5.32;1.20;;;20.80;87.50;;;;;;5093910;28;20051;-66
2021/07/07 09:15:08;;;;;;;4.22;1.13;;;20.80;85.80;;;;;;5093730;28;20109;-66
2021/07/07 09:17:45;;;;;;;6.28;1.80;;;20.90;84.90;;;;;;5093813;28;20389;-66
2021/07/07 09:20:25;;;;;;;3.22;1.20;;;20.90;85.00;;;;;;5093608;28;20016;-66
2021/07/07 09:23:31;;;;;;;5.72;1.20;;;21.00;84.50;;;;;;5092505;28;20020;-67
2021/07/07 09:25:58;;;;;;;4.95;1.40;;;21.10;83.90;;;;;;5093098;28;20113;-67
2021/07/07 09:28:38;;;;;;;2.40;0.93;;;21.00;83.20;;;;;;5075447;28;20035;-67
2021/07/07 09:31:25;;;;;;;8.38;1.80;;;21.10;84.60;;;;;;5092387;28;20012;-69
2021/07/07 09:33:51;;;;;;;5.60;1.30;;;21.00;83.20;;;;;;5093374;28;20024;-67
2021/07/07 09:36:18;;;;;;;6.03;1.80;;;20.80;83.20;;;;;;5093147;28;20165;-68
2021/07/07 09:38:44;;;;;;;2.10;0.93;;;20.80;83.80;;;;;;5091993;28;20033;-68
2021/07/07 09:41:13;;;;;;;3.30;0.90;;;20.90;84.00;;;;;;5093173;28;20018;-67
2021/07/07 09:43:50;;;;;;;3.22;1.00;;;21.10;84.20;;;;;;5093436;28;20566;-67
2021/07/07 09:46:17;;;;;;;3.90;1.20;;;21.30;84.20;;;;;;5092455;28;20028;-67
2021/07/07 09:48:42;;;;;;;3.85;0.90;;;21.50;84.00;;;;;;5091839;28;20050;-67
2021/07/07 09:51:08;;;;;;;4.10;1.10;;;21.60;82.40;;;;;;5093256;28;20052;-67
2021/07/07 09:53:33;;;;;;;3.97;1.05;;;21.60;81.10;;;;;;5092864;28;20028;-67
2021/07/07 09:56:02;;;;;;;4.10;1.02;;;21.70;80.40;;;;;;5092669;28;20028;-67
2021/07/07 09:58:28;;;;;;;3.85;1.05;;;21.80;81.30;;;;;;5092599;28;20032;-67
2021/07/07 10:00:54;;;;;;;4.15;1.10;;;21.80;80.00;;;;;;5092834;28;20031;-67
2021/07/07 10:03:19;;;;;;;2.67;1.45;;;21.80;79.50;;;;;;5093089;28;20039;-68
2021/07/07 10:05:47;;;;;;;3.67;1.10;;;21.80;79.50;;;;;;5092605;28;20024;-67
2021/07/07 10:08:13;;;;;;;3.78;1.50;;;21.80;79.30;;;;;;5092305;28;20038;-67
2021/07/07 10:10:41;;;;;;;6.00;1.95;;;21.80;79.60;;;;;;5092867;28;20012;-67
2021/07/07 10:13:10;;;;;;;4.78;1.40;;;21.70;79.70;;;;;;5075823;28;20025;-67
2021/07/07 10:15:36;;;;;;;3.03;0.93;;;21.60;79.50;;;;;;5088770;28;20020;-67
2021/07/07 10:18:03;;;;;;;7.28;1.50;;;21.60;80.10;;;;;;5092836;28;20124;-67
2021/07/07 10:20:29;;;;;;;5.90;1.75;;;21.70;80.10;;;;;;5092240;28;20111;-67
2021/07/07 10:22:56;;;;;;;7.15;2.22;;;21.80;80.80;;;;;;5092242;28;20061;-67
2021/07/07 10:25:26;;;;;;;4.18;1.73;;;21.70;79.10;;;;;;5088570;28;20089;-67
2021/07/07 10:27:54;;;;;;;5.40;1.35;;;21.70;81.40;;;;;;5092583;28;20020;-67
2021/07/07 10:30:20;;;;;;;7.32;2.22;;;21.70;80.90;;;;;;5092613;28;20036;-67
2021/07/07 10:33:09;;;;;;;6.05;1.50;;;21.70;81.60;;;;;;5092071;28;20058;-67
2021/07/07 10:35:35;;;;;;;3.33;1.33;;;22.00;81.40;;;;;;5084528;28;20048;-67
2021/07/07 10:38:05;;;;;;;5.00;1.33;;;22.00;82.40;;;;;;5084249;28;20435;-67
2021/07/07 10:40:34;;;;;;;3.92;1.38;;;22.10;81.90;;;;;;5084086;28;20032;-67
2021/07/07 10:43:00;;;;;;;5.55;1.13;;;22.00;80.50;;;;;;5088161;28;20017;-67
2021/07/07 10:45:43;;;;;;;4.00;1.20;;;22.00;80.60;;;;;;5084262;28;20028;-67
2021/07/07 10:48:25;;;;;;;5.15;1.20;;;22.00;79.40;;;;;;5084681;28;20032;-67
2021/07/07 10:50:56;;;;;;;4.63;1.20;;;21.90;77.70;;;;;;5084474;28;20450;-67
2021/07/07 10:53:35;;;;;;;4.13;1.20;;;21.80;77.20;;;;;;5083846;28;20054;-67
2021/07/07 10:56:05;;;;;;;6.47;1.20;;;21.90;78.60;;;;;;5085821;28;20021;-67
2021/07/07 10:58:36;;;;;;;5.50;1.17;;;22.00;79.20;;;;;;5094488;28;20396;-67
2021/07/07 11:01:04;;;;;;;3.80;1.23;;;22.10;79.00;;;;;;5092355;28;20378;-68
2021/07/07 11:03:40;;;;;;;4.13;1.42;;;22.20;79.00;;;;;;5087101;28;20027;-68
2021/07/07 11:06:26;;;;;;;3.67;1.05;;;22.30;78.50;;;;;;5081865;28;20028;-67
2021/07/07 11:09:17;;;;;;;2.75;1.35;;;22.40;79.20;;;;;;5081257;28;20016;-67
2021/07/07 11:11:47;;;;;;;5.38;1.48;;;22.30;78.20;;;;;;5075331;28;20033;-67
2021/07/07 11:14:22;;;;;;;3.83;1.38;;;22.30;78.60;;;;;;5075082;28;20023;-68
2021/07/07 11:16:56;;;;;;;3.38;1.05;;;22.40;77.30;;;;;;5075388;28;20021;-67
2021/07/07 11:19:42;;;;;;;3.85;0.93;;;22.50;76.90;;;;;;5075215;28;20025;-67
2021/07/07 11:22:09;;;;;;;4.03;1.08;;;22.70;76.00;;;;;;5075390;28;20016;-68
2021/07/07 11:24:35;;;;;;;3.88;1.00;;;22.70;74.90;;;;;;5075556;28;20499;-68
2021/07/07 11:27:05;;;;;;;2.90;1.10;;;22.80;74.40;;;;;;5091796;28;20024;-68
2021/07/07 11:29:31;;;;;;;4.05;1.30;;;22.80;74.60;;;;;;5083227;28;20020;-68
2021/07/07 11:31:57;;;;;;;6.15;1.30;;;22.90;76.30;;;;;;5094376;28;20115;-67
2021/07/07 11:34:23;;;;;;;2.70;0.82;;;23.10;77.40;;;;;;5094323;28;20103;-68
2021/07/07 11:36:48;;;;;;;1.92;0.80;;;23.30;73.10;;;;;;5094793;28;20131;-68
2021/07/07 11:39:20;;;;;;;2.47;0.82;;;23.40;70.90;;;;;;5095124;28;20032;-68
2021/07/07 11:42:06;;;;;;;1.63;0.57;;;23.50;69.40;;;;;;5095476;28;20031;-68
2021/07/07 11:44:41;;;;;;;2.22;0.77;;;23.80;70.70;;;;;;5095481;28;20028;-69
2021/07/07 11:47:07;;;;;;;2.75;1.10;;;24.00;72.20;;;;;;5095585;28;20137;-68
2021/07/07 11:49:33;;;;;;;3.75;0.95;;;24.00;68.70;;;;;;5095742;28;20031;-68
2021/07/07 11:52:04;;;;;;;1.30;0.80;;;24.00;69.00;;;;;;5094838;28;20028;-68
2021/07/07 11:54:47;;;;;;;3.63;1.10;;;24.20;68.70;;;;;;5093700;28;20098;-68
2021/07/07 11:57:13;;;;;;;3.60;0.80;;;24.10;66.50;;;;;;5075993;28;20027;-68
2021/07/07 11:59:38;;;;;;;3.78;2.00;;;23.80;66.10;;;;;;5074658;28;20029;-68
2021/07/07 12:02:04;;;;;;;3.47;0.80;;;23.60;66.40;;;;;;5075255;28;20032;-68
2021/07/07 12:04:29;;;;;;;1.58;0.80;;;23.70;65.80;;;;;;5093431;28;20032;-69
2021/07/07 12:06:58;;;;;;;3.33;1.05;;;23.70;65.30;;;;;;5094610;28;20040;-68
2021/07/07 12:09:24;;;;;;;2.92;0.85;;;23.90;66.50;;;;;;5092940;28;20039;-68
2021/07/07 12:12:03;;;;;;;2.63;0.70;;;24.20;66.80;;;;;;5073608;28;20024;-69
2021/07/07 12:14:34;;;;;;;2.92;0.93;;;24.30;67.00;;;;;;5073685;28;20457;-68
2021/07/07 12:17:01;;;;;;;3.17;1.02;;;24.40;66.00;;;;;;5086741;28;20124;-68
2021/07/07 12:19:27;;;;;;;5.35;0.90;;;24.30;67.10;;;;;;5094009;28;20035;-68
2021/07/07 12:21:58;;;;;;;1.90;0.80;;;24.40;65.70;;;;;;5094018;28;20062;-69
2021/07/07 12:24:28;;;;;;;4.68;0.98;;;24.60;66.00;;;;;;5093897;28;20024;-68
2021/07/07 12:26:57;;;;;;;1.90;1.10;;;24.70;65.60;;;;;;5093808;28;20032;-68
2021/07/07 12:29:43;;;;;;;3.35;1.25;;;24.50;65.60;;;;;;5092562;28;20051;-68
2021/07/07 12:32:17;;;;;;;2.95;1.10;;;24.30;65.20;;;;;;5093740;28;20389;-68
2021/07/07 12:34:44;;;;;;;2.13;0.90;;;24.30;66.30;;;;;;5092519;28;20103;-68
2021/07/07 12:37:12;;;;;;;3.72;1.10;;;24.40;65.10;;;;;;5092935;28;20040;-68
2021/07/07 12:39:58;;;;;;;2.50;0.95;;;24.20;63.70;;;;;;5092483;28;20084;-68
2021/07/07 12:42:31;;;;;;;0.85;0.68;;;24.20;66.10;;;;;;5094428;28;20035;-68
2021/07/07 12:45:06;;;;;;;2.88;1.05;;;24.30;65.30;;;;;;5082787;28;20073;-68
2021/07/07 12:47:32;;;;;;;1.40;0.70;;;24.40;64.40;;;;;;5089909;28;20024;-68